Time;durP1;ratioP1;P1;durP2;ratioP2;P2;SDS_P1;SDS_P2;PMS_P1;PMS_P2;Temp;Humidity;BMP_temperature;BMP_pressure;BME280_temperature;BME280_humidity;BME280_pressure;Samples;Min_cycle;Max_cycle;Signal;HPM_P1;HPM_P2
2023/04/13 00:00:51;;;;;;;6.30;3.65;;;;;;;;;;5037289;28;20204;-45
2023/04/13 00:03:19;;;;;;;8.52;4.15;;;;;;;;;;5037130;28;20318;-44
2023/04/13 00:05:47;;;;;;;5.05;3.25;;;;;;;;;;5037344;28;20278;-43
2023/04/13 00:08:15;;;;;;;9.85;4.35;;;;;;;;;;5037320;28;20258;-43
2023/04/13 00:10:44;;;;;;;4.40;2.63;;;;;;;;;;5036990;28;20201;-43
2023/04/13 00:13:13;;;;;;;5.50;3.65;;;;;;;;;;5037061;28;20582;-46
2023/04/13 00:15:42;;;;;;;4.05;2.67;;;;;;;;;;5036879;28;20212;-44
2023/04/13 00:18:09;;;;;;;5.47;3.63;;;;;;;;;;5036702;28;20232;-42
2023/04/13 00:20:38;;;;;;;6.45;3.92;;;;;;;;;;5037134;28;20204;-43
2023/04/13 00:23:04;;;;;;;8.75;3.90;;;;;;;;;;5036647;28;20196;-43
2023/04/13 00:25:32;;;;;;;5.18;3.08;;;;;;;;;;5037190;28;20266;-43
2023/04/13 00:28:02;;;;;;;5.90;3.65;;;;;;;;;;5036854;28;20224;-44
2023/04/13 00:30:29;;;;;;;7.32;3.10;;;;;;;;;;5037099;28;20212;-44
2023/04/13 00:32:56;;;;;;;5.68;3.55;;;;;;;;;;5019031;28;20742;-43
2023/04/13 00:35:25;;;;;;;4.88;3.35;;;;;;;;;;5036849;28;20653;-44
2023/04/13 00:37:52;;;;;;;6.00;3.95;;;;;;;;;;5036438;28;20228;-44
2023/04/13 00:40:23;;;;;;;6.85;3.60;;;;;;;;;;5036515;28;20201;-43
2023/04/13 00:42:52;;;;;;;5.75;2.90;;;;;;;;;;5036261;28;20209;-44
2023/04/13 00:45:19;;;;;;;6.63;3.22;;;;;;;;;;5036268;28;20693;-43
2023/04/13 00:47:47;;;;;;;7.03;3.90;;;;;;;;;;5036331;28;20209;-43
2023/04/13 00:50:17;;;;;;;4.60;3.00;;;;;;;;;;5036412;28;20213;-42
2023/04/13 00:52:45;;;;;;;6.00;3.30;;;;;;;;;;5036202;28;20302;-43
2023/04/13 00:55:13;;;;;;;7.32;3.22;;;;;;;;;;5035242;28;20685;-44
2023/04/13 00:57:40;;;;;;;9.25;3.75;;;;;;;;;;5036220;28;20200;-43
2023/04/13 01:00:08;;;;;;;10.10;4.45;;;;;;;;;;5018724;28;20208;-43
2023/04/13 01:02:40;;;;;;;6.55;4.60;;;;;;;;;;5036055;28;20204;-43
2023/04/13 01:05:13;;;;;;;7.60;3.92;;;;;;;;;;5018388;28;20204;-44
2023/04/13 01:08:11;;;;;;;6.82;4.05;;;;;;;;;;5018562;28;20216;-44
2023/04/13 01:10:53;;;;;;;8.30;4.82;;;;;;;;;;5035983;28;20200;-43
2023/04/13 01:13:25;;;;;;;10.75;5.00;;;;;;;;;;5034980;28;20224;-43
2023/04/13 01:16:02;;;;;;;8.68;4.63;;;;;;;;;;5018442;28;20577;-43
2023/04/13 01:18:37;;;;;;;10.25;6.40;;;;;;;;;;5003022;28;20230;-44
2023/04/13 01:21:07;;;;;;;8.85;5.50;;;;;;;;;;5002727;28;20231;-42
2023/04/13 01:23:48;;;;;;;6.18;4.00;;;;;;;;;;5018321;28;20197;-44
2023/04/13 01:26:16;;;;;;;9.90;5.95;;;;;;;;;;5034530;28;20207;-44
2023/04/13 01:28:45;;;;;;;6.10;3.92;;;;;;;;;;5034880;28;20266;-44
2023/04/13 01:31:14;;;;;;;8.55;4.30;;;;;;;;;;5018016;28;20200;-43
2023/04/13 01:33:41;;;;;;;5.88;3.80;;;;;;;;;;5035730;28;20262;-44
2023/04/13 01:36:09;;;;;;;6.85;4.50;;;;;;;;;;5034306;28;20230;-44
2023/04/13 01:38:37;;;;;;;6.95;4.57;;;;;;;;;;5017956;28;20700;-44
2023/04/13 01:41:07;;;;;;;6.57;3.95;;;;;;;;;;5018072;28;20213;-43
2023/04/13 01:43:37;;;;;;;7.13;3.72;;;;;;;;;;5018290;28;20235;-44
2023/04/13 01:46:12;;;;;;;6.63;3.10;;;;;;;;;;5017597;28;20204;-44
2023/04/13 01:49:00;;;;;;;6.32;3.20;;;;;;;;;;5017711;28;20311;-44
2023/04/13 01:52:00;;;;;;;4.13;2.97;;;;;;;;;;4974061;28;20339;-44
2023/04/13 01:54:30;;;;;;;5.80;3.60;;;;;;;;;;4958378;28;20217;-45
2023/04/13 01:56:59;;;;;;;6.25;3.45;;;;;;;;;;4958419;28;20199;-43
2023/04/13 01:59:27;;;;;;;6.85;3.70;;;;;;;;;;4974030;28;20226;-42
2023/04/13 02:01:54;;;;;;;4.80;3.33;;;;;;;;;;4958175;28;20250;-42
2023/04/13 02:04:21;;;;;;;6.68;3.38;;;;;;;;;;4974300;28;20203;-43
2023/04/13 02:06:50;;;;;;;5.25;3.72;;;;;;;;;;4974288;28;20290;-43
2023/04/13 02:09:22;;;;;;;5.32;3.30;;;;;;;;;;4974335;28;20229;-43
2023/04/13 02:11:54;;;;;;;6.72;3.58;;;;;;;;;;4974028;28;20269;-42
2023/04/13 02:14:21;;;;;;;6.28;3.85;;;;;;;;;;4973799;28;20664;-43
2023/04/13 02:16:49;;;;;;;4.38;3.08;;;;;;;;;;4957803;28;20609;-43
2023/04/13 02:19:16;;;;;;;5.35;3.75;;;;;;;;;;4926438;28;20231;-43
2023/04/13 02:21:43;;;;;;;4.90;2.65;;;;;;;;;;4973305;28;20203;-43
2023/04/13 02:24:10;;;;;;;5.68;3.35;;;;;;;;;;4957572;28;20202;-43
2023/04/13 02:26:38;;;;;;;5.75;3.53;;;;;;;;;;4978585;28;20213;-43
2023/04/13 02:29:06;;;;;;;8.05;4.13;;;;;;;;;;5016866;28;20211;-43
2023/04/13 02:31:34;;;;;;;7.25;4.53;;;;;;;;;;5033106;28;20235;-42
2023/04/13 02:34:01;;;;;;;4.20;3.03;;;;;;;;;;5016832;28;20287;-43
2023/04/13 02:36:30;;;;;;;5.70;3.75;;;;;;;;;;5016992;28;20231;-43
2023/04/13 02:39:02;;;;;;;7.90;4.20;;;;;;;;;;5016885;28;20234;-47
2023/04/13 02:41:31;;;;;;;5.93;3.53;;;;;;;;;;5016679;28;20579;-43
2023/04/13 02:43:59;;;;;;;7.85;3.33;;;;;;;;;;5034373;28;20201;-44
2023/04/13 02:46:33;;;;;;;4.28;3.28;;;;;;;;;;5034439;28;20199;-43
2023/04/13 02:49:07;;;;;;;5.85;3.95;;;;;;;;;;5016761;28;20213;-43
2023/04/13 02:51:41;;;;;;;6.55;3.67;;;;;;;;;;5016666;28;20199;-44
2023/04/13 02:54:10;;;;;;;5.80;3.97;;;;;;;;;;5033004;28;20204;-42
2023/04/13 02:56:42;;;;;;;5.18;2.92;;;;;;;;;;5016718;28;20542;-43
2023/04/13 02:59:09;;;;;;;4.03;3.08;;;;;;;;;;5016721;28;20221;-43
2023/04/13 03:01:36;;;;;;;6.20;3.10;;;;;;;;;;5034203;28;20200;-42
2023/04/13 03:04:05;;;;;;;5.70;3.77;;;;;;;;;;5016272;28;20201;-42
2023/04/13 03:06:33;;;;;;;5.78;3.40;;;;;;;;;;5016362;28;20200;-42
2023/04/13 03:09:01;;;;;;;5.80;2.80;;;;;;;;;;5032322;28;20205;-43
2023/04/13 03:11:36;;;;;;;4.28;2.63;;;;;;;;;;5016266;28;20215;-43
2023/04/13 03:14:19;;;;;;;4.78;3.08;;;;;;;;;;5032332;28;20204;-42
2023/04/13 03:16:51;;;;;;;4.95;3.25;;;;;;;;;;5015816;28;20200;-43
2023/04/13 03:19:22;;;;;;;5.83;3.57;;;;;;;;;;5015706;28;20270;-43
2023/04/13 03:21:49;;;;;;;6.83;3.97;;;;;;;;;;5015789;28;20232;-43
2023/04/13 03:24:21;;;;;;;6.50;3.77;;;;;;;;;;5015855;28;20212;-43
2023/04/13 03:26:48;;;;;;;4.97;3.40;;;;;;;;;;5033131;28;20681;-43
2023/04/13 03:29:24;;;;;;;5.40;3.03;;;;;;;;;;5015604;28;20196;-43
2023/04/13 03:31:51;;;;;;;7.73;3.73;;;;;;;;;;5033139;28;20232;-42
2023/04/13 03:34:19;;;;;;;5.35;3.55;;;;;;;;;;5015538;28;20671;-46
2023/04/13 03:36:47;;;;;;;6.20;3.20;;;;;;;;;;5032026;28;20578;-43
2023/04/13 03:39:18;;;;;;;6.97;3.97;;;;;;;;;;5014136;28;20299;-44
2023/04/13 03:41:45;;;;;;;5.50;3.22;;;;;;;;;;5021924;28;20629;-43
2023/04/13 03:44:12;;;;;;;4.55;3.33;;;;;;;;;;5012501;28;20205;-44
2023/04/13 03:46:41;;;;;;;5.30;3.35;;;;;;;;;;5012918;28;20226;-44
2023/04/13 03:49:20;;;;;;;7.30;3.42;;;;;;;;;;5013760;28;20211;-44
2023/04/13 03:51:47;;;;;;;5.30;2.83;;;;;;;;;;5032728;28;20212;-45
2023/04/13 03:54:15;;;;;;;4.80;3.13;;;;;;;;;;5015349;28;20250;-44
2023/04/13 03:56:44;;;;;;;7.97;3.33;;;;;;;;;;5015351;28;20209;-44
2023/04/13 03:59:13;;;;;;;14.68;3.70;;;;;;;;;;5033071;28;20239;-44
2023/04/13 04:01:40;;;;;;;5.47;3.20;;;;;;;;;;5033093;28;20208;-44
2023/04/13 04:04:08;;;;;;;4.72;3.25;;;;;;;;;;5014620;28;20251;-43
2023/04/13 04:06:36;;;;;;;4.47;2.90;;;;;;;;;;5015334;28;20689;-44
2023/04/13 04:09:12;;;;;;;5.27;3.40;;;;;;;;;;5031914;28;20201;-42
2023/04/13 04:11:45;;;;;;;6.10;3.47;;;;;;;;;;5015489;28;20213;-43
2023/04/13 04:14:17;;;;;;;4.57;3.22;;;;;;;;;;5010814;28;20221;-43
2023/04/13 04:16:53;;;;;;;5.07;3.63;;;;;;;;;;5030943;28;20589;-44
2023/04/13 04:19:22;;;;;;;6.78;3.45;;;;;;;;;;5014546;28;20307;-42
2023/04/13 04:21:51;;;;;;;6.95;4.43;;;;;;;;;;5015311;28;20225;-45
2023/04/13 04:24:21;;;;;;;5.10;3.43;;;;;;;;;;5022393;28;20225;-43
2023/04/13 04:26:56;;;;;;;6.78;3.72;;;;;;;;;;5023479;28;20232;-44
2023/04/13 04:29:33;;;;;;;6.73;3.80;;;;;;;;;;5014470;28;20316;-43
2023/04/13 04:32:09;;;;;;;5.53;3.65;;;;;;;;;;5011238;28;20233;-43
2023/04/13 04:34:39;;;;;;;6.63;3.22;;;;;;;;;;5011221;28;20252;-43
2023/04/13 04:37:12;;;;;;;5.65;3.63;;;;;;;;;;5011343;28;20690;-43
2023/04/13 04:39:56;;;;;;;7.13;3.60;;;;;;;;;;5009788;28;20260;-44
2023/04/13 04:42:24;;;;;;;5.43;3.30;;;;;;;;;;5034444;28;20269;-42
2023/04/13 04:44:51;;;;;;;7.15;3.92;;;;;;;;;;5009921;28;20232;-44
2023/04/13 04:47:23;;;;;;;5.00;3.63;;;;;;;;;;5011484;28;20226;-44
2023/04/13 04:50:13;;;;;;;6.47;4.10;;;;;;;;;;5013775;28;20225;-42
2023/04/13 04:52:43;;;;;;;7.28;4.20;;;;;;;;;;5012522;28;20218;-45
2023/04/13 04:55:13;;;;;;;4.95;2.90;;;;;;;;;;5012819;28;20213;-42
2023/04/13 04:57:42;;;;;;;6.75;4.10;;;;;;;;;;5013954;28;20718;-45
2023/04/13 05:00:16;;;;;;;5.78;3.92;;;;;;;;;;5011782;28;20275;-43
2023/04/13 05:02:59;;;;;;;5.57;3.65;;;;;;;;;;5010489;28;20226;-45
2023/04/13 05:05:29;;;;;;;5.70;3.95;;;;;;;;;;5012572;28;20225;-43
2023/04/13 05:08:00;;;;;;;6.15;4.32;;;;;;;;;;5012905;28;20217;-43
2023/04/13 05:10:28;;;;;;;5.78;4.18;;;;;;;;;;5012485;28;20224;-45
2023/04/13 05:12:57;;;;;;;6.15;3.65;;;;;;;;;;5012029;28;20222;-44
2023/04/13 05:15:25;;;;;;;9.93;5.22;;;;;;;;;;4997060;28;20695;-42
2023/04/13 05:17:53;;;;;;;9.82;5.18;;;;;;;;;;5014358;28;20226;-43
2023/04/13 05:20:22;;;;;;;8.65;5.35;;;;;;;;;;4998098;28;20232;-46
2023/04/13 05:22:54;;;;;;;8.02;4.85;;;;;;;;;;5014490;28;20202;-43
2023/04/13 05:25:21;;;;;;;9.00;4.90;;;;;;;;;;5014647;28;20692;-48
2023/04/13 05:27:49;;;;;;;10.02;5.88;;;;;;;;;;5014782;28;20202;-43
2023/04/13 05:30:17;;;;;;;11.35;6.35;;;;;;;;;;5014463;28;20230;-44
2023/04/13 05:32:44;;;;;;;9.55;5.28;;;;;;;;;;5030291;28;20231;-43
2023/04/13 05:35:12;;;;;;;8.93;5.70;;;;;;;;;;5035644;28;20208;-43
2023/04/13 05:37:40;;;;;;;12.38;6.03;;;;;;;;;;5018030;28;20572;-45
2023/04/13 05:40:14;;;;;;;9.32;5.65;;;;;;;;;;5017943;28;20224;-43
2023/04/13 05:42:42;;;;;;;10.82;5.60;;;;;;;;;;5017560;28;20208;-43
2023/04/13 05:45:15;;;;;;;10.20;5.38;;;;;;;;;;5018023;28;20211;-44
2023/04/13 05:47:57;;;;;;;8.80;5.55;;;;;;;;;;5017683;28;20267;-43
2023/04/13 05:50:26;;;;;;;10.43;5.43;;;;;;;;;;5017494;28;20650;-42
2023/04/13 05:52:56;;;;;;;9.45;6.07;;;;;;;;;;5017653;28;20213;-43
2023/04/13 05:55:23;;;;;;;11.27;6.25;;;;;;;;;;5016244;28;20204;-42
2023/04/13 05:58:00;;;;;;;7.95;5.43;;;;;;;;;;5017657;28;20211;-42
2023/04/13 06:00:28;;;;;;;8.57;5.28;;;;;;;;;;5034831;28;20225;-43
2023/04/13 06:03:02;;;;;;;9.13;5.80;;;;;;;;;;5035204;28;20188;-44
2023/04/13 06:05:31;;;;;;;7.63;5.47;;;;;;;;;;5017037;28;20197;-45
2023/04/13 06:07:58;;;;;;;10.30;5.75;;;;;;;;;;5017349;28;20665;-46
2023/04/13 06:10:25;;;;;;;10.95;6.22;;;;;;;;;;5017346;28;20243;-44
2023/04/13 06:12:53;;;;;;;8.38;5.35;;;;;;;;;;5016301;28;20208;-44
2023/04/13 06:15:20;;;;;;;8.70;5.53;;;;;;;;;;5016693;28;20208;-44
2023/04/13 06:17:51;;;;;;;9.30;5.43;;;;;;;;;;5016584;28;20212;-45
2023/04/13 06:20:20;;;;;;;10.50;6.22;;;;;;;;;;5034709;28;20223;-45
2023/04/13 06:22:47;;;;;;;8.38;5.63;;;;;;;;;;5034994;28;20223;-44
2023/04/13 06:25:17;;;;;;;9.02;5.57;;;;;;;;;;5017546;28;20197;-43
2023/04/13 06:27:48;;;;;;;10.20;6.03;;;;;;;;;;5016989;28;20212;-43
2023/04/13 06:30:17;;;;;;;9.43;5.18;;;;;;;;;;5014445;28;20205;-44
2023/04/13 06:32:46;;;;;;;9.90;6.25;;;;;;;;;;5016763;28;20237;-45
2023/04/13 06:35:16;;;;;;;12.75;6.15;;;;;;;;;;5016964;28;20201;-43
2023/04/13 06:37:47;;;;;;;8.05;5.90;;;;;;;;;;5016768;28;20197;-43
2023/04/13 06:40:20;;;;;;;11.98;6.45;;;;;;;;;;5016742;28;20220;-43
2023/04/13 06:42:57;;;;;;;9.25;4.97;;;;;;;;;;5016874;28;20227;-42
2023/04/13 06:45:29;;;;;;;9.93;6.13;;;;;;;;;;5033688;28;20314;-43
2023/04/13 06:47:57;;;;;;;9.75;6.22;;;;;;;;;;5028047;28;20602;-43
2023/04/13 06:50:24;;;;;;;9.65;6.13;;;;;;;;;;5043327;28;20228;-43
2023/04/13 06:52:57;;;;;;;11.15;6.03;;;;;;;;;;5016484;28;20177;-43
2023/04/13 06:55:26;;;;;;;12.10;6.85;;;;;;;;;;5014972;28;20236;-44
2023/04/13 06:57:53;;;;;;;8.75;5.55;;;;;;;;;;5032584;28;20209;-43
2023/04/13 07:00:20;;;;;;;7.88;5.82;;;;;;;;;;5033500;28;20221;-46
2023/04/13 07:02:57;;;;;;;10.95;5.82;;;;;;;;;;5016177;28;20208;-43
2023/04/13 07:05:25;;;;;;;11.38;6.47;;;;;;;;;;5034010;28;20212;-43
2023/04/13 07:07:55;;;;;;;9.10;6.10;;;;;;;;;;5015969;28;20212;-42
2023/04/13 07:10:23;;;;;;;10.13;5.95;;;;;;;;;;5034054;28;20200;-43
2023/04/13 07:12:52;;;;;;;10.30;6.07;;;;;;;;;;5016037;28;20556;-43
2023/04/13 07:15:24;;;;;;;10.07;6.70;;;;;;;;;;5016436;28;20224;-43
2023/04/13 07:17:54;;;;;;;8.90;5.82;;;;;;;;;;5015973;28;20736;-43
2023/04/13 07:20:21;;;;;;;8.88;6.57;;;;;;;;;;5015926;28;20308;-46
2023/04/13 07:22:50;;;;;;;13.95;7.05;;;;;;;;;;5016243;28;20228;-43
2023/04/13 07:25:17;;;;;;;12.82;7.20;;;;;;;;;;5016284;28;20223;-44
2023/04/13 07:27:45;;;;;;;15.18;7.82;;;;;;;;;;5033431;28;20724;-43
2023/04/13 07:30:15;;;;;;;11.88;7.45;;;;;;;;;;5012558;28;20574;-51
2023/04/13 07:32:45;;;;;;;13.23;7.05;;;;;;;;;;5012547;28;20233;-43
2023/04/13 07:35:12;;;;;;;14.80;8.18;;;;;;;;;;5011173;28;20212;-43
2023/04/13 07:37:42;;;;;;;12.63;7.45;;;;;;;;;;5012716;28;20197;-43
2023/04/13 07:40:10;;;;;;;16.90;8.15;;;;;;;;;;5012227;28;20225;-43
2023/04/13 07:42:40;;;;;;;15.15;8.20;;;;;;;;;;5012509;28;20216;-43
2023/04/13 07:45:09;;;;;;;13.15;7.82;;;;;;;;;;5012810;28;20562;-43
2023/04/13 07:47:38;;;;;;;14.90;8.65;;;;;;;;;;5012393;28;20201;-43
2023/04/13 07:50:08;;;;;;;13.68;8.45;;;;;;;;;;5012578;28;20220;-44
2023/04/13 07:52:36;;;;;;;16.85;9.43;;;;;;;;;;5012266;28;20263;-44
2023/04/13 07:55:05;;;;;;;18.95;10.00;;;;;;;;;;5012587;28;20208;-43
2023/04/13 07:57:36;;;;;;;17.20;8.82;;;;;;;;;;5012426;28;20209;-45
2023/04/13 08:00:05;;;;;;;17.88;9.75;;;;;;;;;;5012411;28;20256;-43
2023/04/13 08:02:40;;;;;;;13.55;8.60;;;;;;;;;;5021675;28;20196;-44
2023/04/13 08:05:11;;;;;;;16.33;9.00;;;;;;;;;;5016053;28;20236;-43
2023/04/13 08:07:41;;;;;;;20.83;10.23;;;;;;;;;;5015662;28;20211;-42
2023/04/13 08:10:08;;;;;;;17.83;9.75;;;;;;;;;;5031855;28;20209;-47
2023/04/13 08:12:36;;;;;;;13.25;7.80;;;;;;;;;;5014623;28;20574;-43
2023/04/13 08:15:03;;;;;;;18.67;8.70;;;;;;;;;;5031732;28;20259;-45
2023/04/13 08:17:31;;;;;;;15.57;8.95;;;;;;;;;;5031256;28;20208;-43
2023/04/13 08:19:59;;;;;;;14.90;8.55;;;;;;;;;;5018645;28;20220;-45
2023/04/13 08:22:27;;;;;;;13.10;8.18;;;;;;;;;;5019452;28;20562;-43
2023/04/13 08:24:55;;;;;;;13.75;8.25;;;;;;;;;;5036796;28;20196;-43
2023/04/13 08:27:24;;;;;;;15.30;8.07;;;;;;;;;;5019356;28;20205;-43
2023/04/13 08:30:00;;;;;;;13.02;7.65;;;;;;;;;;5035761;28;20263;-45
2023/04/13 08:32:35;;;;;;;10.18;6.80;;;;;;;;;;5019322;28;20271;-44
2023/04/13 08:35:06;;;;;;;12.10;6.80;;;;;;;;;;5018881;28;20207;-43
2023/04/13 08:37:34;;;;;;;14.90;9.00;;;;;;;;;;5019067;28;20205;-43
2023/04/13 08:40:06;;;;;;;17.17;8.88;;;;;;;;;;5035506;28;20220;-43
2023/04/13 08:42:33;;;;;;;15.68;8.77;;;;;;;;;;5019127;28;20224;-43
2023/04/13 08:45:02;;;;;;;15.18;8.23;;;;;;;;;;5018976;28;20204;-43
2023/04/13 08:47:30;;;;;;;14.98;8.35;;;;;;;;;;5019210;28;20201;-44
2023/04/13 08:49:58;;;;;;;11.60;7.35;;;;;;;;;;5036337;28;20669;-44
2023/04/13 08:52:36;;;;;;;13.60;7.30;;;;;;;;;;5018937;28;20193;-43
2023/04/13 08:55:04;;;;;;;9.48;5.70;;;;;;;;;;5018826;28;20597;-44
2023/04/13 08:57:35;;;;;;;10.40;5.95;;;;;;;;;;5018795;28;20588;-44
2023/04/13 09:00:09;;;;;;;11.90;6.63;;;;;;;;;;5018743;28;20251;-45
2023/04/13 09:02:37;;;;;;;10.20;5.80;;;;;;;;;;5019435;28;20192;-48
2023/04/13 09:05:16;;;;;;;7.88;5.32;;;;;;;;;;5018783;28;20196;-43
2023/04/13 09:07:52;;;;;;;7.97;5.03;;;;;;;;;;5020393;28;20200;-44
2023/04/13 09:10:20;;;;;;;6.97;4.25;;;;;;;;;;5003000;28;20208;-44
2023/04/13 09:12:49;;;;;;;5.75;3.75;;;;;;;;;;5035988;28;20205;-43
2023/04/13 09:15:17;;;;;;;4.30;2.95;;;;;;;;;;5035776;28;20700;-43
2023/04/13 09:18:09;;;;;;;6.72;4.20;;;;;;;;;;5034966;28;20270;-43
2023/04/13 09:21:00;;;;;;;5.70;3.65;;;;;;;;;;5018109;28;20688;-43
2023/04/13 09:23:27;;;;;;;5.30;3.63;;;;;;;;;;5035809;28;20208;-44
2023/04/13 09:26:08;;;;;;;6.07;3.80;;;;;;;;;;5035551;28;20201;-43
2023/04/13 09:28:46;;;;;;;4.85;3.45;;;;;;;;;;5035863;28;20258;-44
2023/04/13 09:31:14;;;;;;;6.95;3.90;;;;;;;;;;5035384;28;20228;-44
2023/04/13 09:33:48;;;;;;;6.05;4.10;;;;;;;;;;5035746;28;20669;-43
2023/04/13 09:36:18;;;;;;;5.65;3.15;;;;;;;;;;5035962;28;20189;-44
2023/04/13 09:38:54;;;;;;;5.45;3.15;;;;;;;;;;5035466;28;20204;-44
2023/04/13 09:41:35;;;;;;;6.18;3.42;;;;;;;;;;5035252;28;20220;-44
2023/04/13 09:44:19;;;;;;;5.78;3.78;;;;;;;;;;5035505;28;20585;-43
2023/04/13 09:46:59;;;;;;;6.97;3.30;;;;;;;;;;5035625;28;20227;-44
2023/04/13 09:49:39;;;;;;;4.55;3.42;;;;;;;;;;5017895;28;20205;-45
2023/04/13 09:52:17;;;;;;;5.05;3.67;;;;;;;;;;5035301;28;20579;-43
2023/04/13 09:54:48;;;;;;;4.88;3.35;;;;;;;;;;5017822;28;20196;-44
2023/04/13 09:57:24;;;;;;;9.38;3.97;;;;;;;;;;5017835;28;20209;-44
2023/04/13 09:59:53;;;;;;;4.55;3.38;;;;;;;;;;5035229;28;20203;-43
2023/04/13 10:02:20;;;;;;;5.05;3.42;;;;;;;;;;5035299;28;20221;-43
2023/04/13 10:04:48;;;;;;;5.40;3.55;;;;;;;;;;5034788;28;20201;-45
2023/04/13 10:07:16;;;;;;;3.65;2.80;;;;;;;;;;5034872;28;20208;-44
2023/04/13 10:09:44;;;;;;;3.72;2.75;;;;;;;;;;4985197;28;20200;-43
2023/04/13 10:12:12;;;;;;;4.40;3.00;;;;;;;;;;5035225;28;20204;-43
2023/04/13 10:14:44;;;;;;;4.18;2.97;;;;;;;;;;5034862;28;20205;-43
2023/04/13 10:17:30;;;;;;;4.78;3.22;;;;;;;;;;5034886;28;20208;-44
2023/04/13 10:20:00;;;;;;;4.63;3.65;;;;;;;;;;5034854;28;20185;-44
2023/04/13 10:22:28;;;;;;;4.70;3.42;;;;;;;;;;5034709;28;20232;-44
2023/04/13 10:24:56;;;;;;;4.53;3.03;;;;;;;;;;5033551;28;20205;-43
2023/04/13 10:27:26;;;;;;;4.72;3.65;;;;;;;;;;5034354;28;20296;-43
2023/04/13 10:29:54;;;;;;;5.40;3.60;;;;;;;;;;5034311;28;20199;-43
2023/04/13 10:32:25;;;;;;;5.30;3.35;;;;;;;;;;5034638;28;20224;-44
2023/04/13 10:34:53;;;;;;;5.95;4.13;;;;;;;;;;5034567;28;20600;-44
2023/04/13 10:37:22;;;;;;;5.38;3.67;;;;;;;;;;5034210;28;20673;-45
2023/04/13 10:40:07;;;;;;;5.05;3.42;;;;;;;;;;5034583;28;20205;-43
2023/04/13 10:42:46;;;;;;;5.15;3.80;;;;;;;;;;5033594;28;20243;-44
2023/04/13 10:45:22;;;;;;;5.30;3.65;;;;;;;;;;5034417;28;20189;-44
2023/04/13 10:47:49;;;;;;;4.78;3.53;;;;;;;;;;5034334;28;20300;-43
2023/04/13 10:50:21;;;;;;;4.63;3.38;;;;;;;;;;5034135;28;20212;-43
2023/04/13 10:53:03;;;;;;;5.75;3.53;;;;;;;;;;5034520;28;20208;-45
2023/04/13 10:55:32;;;;;;;4.95;3.58;;;;;;;;;;5034293;28;20204;-44
2023/04/13 10:58:00;;;;;;;5.80;3.13;;;;;;;;;;5033887;28;20653;-44
2023/04/13 11:00:29;;;;;;;4.18;3.13;;;;;;;;;;5033894;28;20280;-46
2023/04/13 11:03:15;;;;;;;4.18;3.40;;;;;;;;;;5033955;28;20204;-43
2023/04/13 11:05:45;;;;;;;5.13;3.53;;;;;;;;;;5032896;28;20196;-44
2023/04/13 11:08:18;;;;;;;4.57;2.80;;;;;;;;;;4999396;28;20201;-44
2023/04/13 11:10:53;;;;;;;4.35;3.17;;;;;;;;;;5033837;28;20208;-43
2023/04/13 11:13:23;;;;;;;4.75;2.85;;;;;;;;;;5034147;28;20204;-43
2023/04/13 11:15:58;;;;;;;5.47;3.50;;;;;;;;;;5033724;28;20216;-44
2023/04/13 11:18:26;;;;;;;4.70;3.40;;;;;;;;;;5034142;28;20243;-44
2023/04/13 11:20:53;;;;;;;5.40;4.00;;;;;;;;;;5033761;28;20228;-44
2023/04/13 11:23:22;;;;;;;6.45;3.58;;;;;;;;;;5033517;28;20565;-43
2023/04/13 11:25:54;;;;;;;5.65;3.50;;;;;;;;;;5033577;28;20208;-44
2023/04/13 11:28:22;;;;;;;6.57;3.55;;;;;;;;;;5033471;28;20255;-43
2023/04/13 11:30:53;;;;;;;4.97;3.10;;;;;;;;;;5033650;28;20215;-45
2023/04/13 11:33:30;;;;;;;4.85;3.38;;;;;;;;;;5034043;28;20240;-44
2023/04/13 11:35:58;;;;;;;4.25;3.08;;;;;;;;;;5033714;28;20259;-44
2023/04/13 11:38:27;;;;;;;4.07;3.00;;;;;;;;;;5033612;28;20254;-43
2023/04/13 11:41:02;;;;;;;5.60;3.65;;;;;;;;;;5033102;28;20286;-43
2023/04/13 11:43:41;;;;;;;4.65;3.58;;;;;;;;;;5033629;28;20279;-45
2023/04/13 11:46:09;;;;;;;4.85;3.45;;;;;;;;;;5015179;28;20193;-44
2023/04/13 11:48:37;;;;;;;3.70;3.22;;;;;;;;;;5014698;28;20554;-43
2023/04/13 11:51:04;;;;;;;5.57;3.80;;;;;;;;;;5014591;28;20197;-45
2023/04/13 11:53:35;;;;;;;6.32;3.13;;;;;;;;;;5015592;28;20252;-46
2023/04/13 11:56:03;;;;;;;6.00;3.65;;;;;;;;;;5034611;28;20665;-46
2023/04/13 11:58:30;;;;;;;5.18;2.97;;;;;;;;;;5029903;28;20193;-44
2023/04/13 12:00:57;;;;;;;3.72;2.65;;;;;;;;;;5035294;28;20239;-44
2023/04/13 12:03:32;;;;;;;3.00;2.45;;;;;;;;;;5032858;28;20193;-42
2023/04/13 12:06:21;;;;;;;4.03;3.08;;;;;;;;;;5035864;28;20185;-44
2023/04/13 12:08:49;;;;;;;4.00;2.63;;;;;;;;;;5035462;28;20224;-44
2023/04/13 12:11:24;;;;;;;3.90;2.70;;;;;;;;;;5035425;28;20249;-46
2023/04/13 12:14:23;;;;;;;4.95;2.80;;;;;;;;;;5020240;28;20197;-44
2023/04/13 12:17:14;;;;;;;3.33;2.60;;;;;;;;;;5002833;28;20197;-43
2023/04/13 12:19:44;;;;;;;4.15;2.65;;;;;;;;;;5035595;28;20272;-43
2023/04/13 12:22:12;;;;;;;4.40;2.45;;;;;;;;;;5035259;28;20644;-43
2023/04/13 12:24:40;;;;;;;5.03;3.00;;;;;;;;;;5035382;28;20299;-43
2023/04/13 12:27:09;;;;;;;4.40;2.78;;;;;;;;;;5030607;28;20251;-43
2023/04/13 12:29:44;;;;;;;3.60;2.78;;;;;;;;;;5035283;28;20185;-44
2023/04/13 12:32:13;;;;;;;3.42;3.00;;;;;;;;;;5018867;28;20259;-43
2023/04/13 12:34:42;;;;;;;4.22;2.65;;;;;;;;;;5032600;28;20220;-43
2023/04/13 12:37:10;;;;;;;4.15;2.90;;;;;;;;;;5036356;28;20228;-43
2023/04/13 12:39:37;;;;;;;3.25;2.53;;;;;;;;;;5033993;28;20271;-42
2023/04/13 12:42:05;;;;;;;4.10;2.75;;;;;;;;;;5035638;28;20225;-42
2023/04/13 12:44:32;;;;;;;3.63;2.78;;;;;;;;;;5040606;28;20712;-47
2023/04/13 12:47:00;;;;;;;3.90;3.30;;;;;;;;;;5030498;28;20237;-42
2023/04/13 12:49:28;;;;;;;3.78;3.10;;;;;;;;;;5035095;28;20228;-43
2023/04/13 12:51:56;;;;;;;4.30;3.08;;;;;;;;;;5055489;28;20779;-43
2023/04/13 12:54:23;;;;;;;4.22;2.70;;;;;;;;;;5055194;28;20228;-46
2023/04/13 12:56:50;;;;;;;5.00;3.22;;;;;;;;;;5038371;28;20212;-43
2023/04/13 12:59:20;;;;;;;5.30;3.00;;;;;;;;;;5055532;28;20235;-44
2023/04/13 13:01:48;;;;;;;3.38;2.90;;;;;;;;;;5054986;28;20240;-48
2023/04/13 13:04:15;;;;;;;4.43;2.70;;;;;;;;;;5054203;28;20236;-45
2023/04/13 13:06:43;;;;;;;4.28;3.20;;;;;;;;;;5055834;28;20224;-44
2023/04/13 13:09:10;;;;;;;4.03;3.20;;;;;;;;;;5055149;28;20254;-44
2023/04/13 13:11:37;;;;;;;4.15;3.20;;;;;;;;;;5055077;28;20224;-43
2023/04/13 13:14:05;;;;;;;3.75;3.00;;;;;;;;;;5054995;28;20220;-44
2023/04/13 13:16:32;;;;;;;3.85;3.00;;;;;;;;;;5054989;28;20223;-43
2023/04/13 13:18:59;;;;;;;3.97;2.97;;;;;;;;;;5042431;28;20217;-43
2023/04/13 13:21:26;;;;;;;3.75;2.80;;;;;;;;;;5035056;28;20228;-43
2023/04/13 13:23:53;;;;;;;4.00;2.35;;;;;;;;;;5017726;28;20232;-46
2023/04/13 13:26:21;;;;;;;4.13;2.90;;;;;;;;;;5034281;28;20213;-42
2023/04/13 13:28:52;;;;;;;3.65;2.78;;;;;;;;;;5033356;28;20224;-44
2023/04/13 13:31:19;;;;;;;3.20;2.55;;;;;;;;;;5034353;28;20282;-45
2023/04/13 13:33:46;;;;;;;4.07;2.70;;;;;;;;;;5034396;28;20233;-44
2023/04/13 13:36:14;;;;;;;3.40;2.45;;;;;;;;;;5035000;28;20779;-43
2023/04/13 13:38:41;;;;;;;4.47;3.00;;;;;;;;;;5034889;28;20251;-44
2023/04/13 13:41:09;;;;;;;4.95;3.20;;;;;;;;;;5033248;28;20217;-43
2023/04/13 13:43:37;;;;;;;4.85;3.00;;;;;;;;;;5032752;28;20221;-44
2023/04/13 13:46:05;;;;;;;4.00;2.92;;;;;;;;;;5033424;28;20236;-44
2023/04/13 13:48:34;;;;;;;3.85;2.85;;;;;;;;;;5051939;28;20717;-44
2023/04/13 13:51:31;;;;;;;3.95;2.75;;;;;;;;;;4964979;28;20266;-43
2023/04/13 13:54:00;;;;;;;4.93;3.10;;;;;;;;;;5031442;28;20771;-45
2023/04/13 13:56:27;;;;;;;4.32;3.05;;;;;;;;;;5032938;28;20221;-47
2023/04/13 13:58:55;;;;;;;4.15;3.10;;;;;;;;;;5034559;28;20270;-43
2023/04/13 14:01:22;;;;;;;4.53;3.30;;;;;;;;;;5034325;28;20232;-43
2023/04/13 14:03:49;;;;;;;5.10;3.30;;;;;;;;;;5032363;28;20220;-44
2023/04/13 14:06:17;;;;;;;3.80;3.00;;;;;;;;;;5034039;28;20716;-46
2023/04/13 14:08:44;;;;;;;4.78;3.38;;;;;;;;;;5034275;28;20235;-43
2023/04/13 14:11:11;;;;;;;4.50;3.08;;;;;;;;;;5033585;28;20235;-44
2023/04/13 14:13:38;;;;;;;3.55;2.78;;;;;;;;;;5032172;28;20217;-46
2023/04/13 14:16:06;;;;;;;5.47;3.05;;;;;;;;;;5032663;28;20207;-44
2023/04/13 14:18:33;;;;;;;4.47;3.17;;;;;;;;;;5033928;28;20216;-43
2023/04/13 14:21:01;;;;;;;3.97;3.03;;;;;;;;;;5033542;28;20276;-46
2023/04/13 14:23:28;;;;;;;5.88;3.40;;;;;;;;;;5015689;28;20308;-43
2023/04/13 14:25:55;;;;;;;4.57;2.75;;;;;;;;;;5031151;28;20247;-44
2023/04/13 14:28:22;;;;;;;5.20;3.20;;;;;;;;;;5033229;28;20192;-47
2023/04/13 14:30:49;;;;;;;4.18;2.90;;;;;;;;;;5033125;28;20200;-44
2023/04/13 14:33:17;;;;;;;4.70;3.20;;;;;;;;;;5034748;28;20244;-43
2023/04/13 14:35:44;;;;;;;7.35;3.10;;;;;;;;;;5033467;28;20200;-44
2023/04/13 14:38:11;;;;;;;4.60;3.45;;;;;;;;;;5032908;28;20200;-43
2023/04/13 14:40:38;;;;;;;4.43;2.95;;;;;;;;;;5033667;28;20544;-44
2023/04/13 14:43:06;;;;;;;5.22;3.35;;;;;;;;;;5032459;28;20701;-43
2023/04/13 14:45:33;;;;;;;5.20;3.42;;;;;;;;;;5033286;28;20200;-44
2023/04/13 14:48:00;;;;;;;4.68;3.33;;;;;;;;;;5032434;28;20211;-47
2023/04/13 14:50:28;;;;;;;5.10;3.30;;;;;;;;;;5030674;28;20211;-48
2023/04/13 14:52:56;;;;;;;2.60;1.70;;;;;;;;;;5030587;28;20197;-45
2023/04/13 14:55:23;;;;;;;2.35;1.45;;;;;;;;;;5031859;28;20215;-43
2023/04/13 14:57:50;;;;;;;1.75;1.55;;;;;;;;;;5033547;28;20215;-44
2023/04/13 15:00:24;;;;;;;1.35;0.93;;;;;;;;;;5033713;28;20204;-44